Time;durP1;ratioP1;P1;durP2;ratioP2;P2;SDS_P1;SDS_P2;PMS_P1;PMS_P2;Temp;Humidity;BMP_temperature;BMP_pressure;BME280_temperature;BME280_humidity;BME280_pressure;Samples;Min_cycle;Max_cycle;Signal;HPM_P1;HPM_P2
2021/11/04 00:00:20;;;;;;;58.70;33.10;;;;;;;;;;5028563;28;20240;-83
2021/11/04 00:02:48;;;;;;;61.27;33.67;;;;;;;;;;5026493;28;20873;-83
2021/11/04 00:05:16;;;;;;;63.93;35.00;;;;;;;;;;5030361;28;20472;-84
2021/11/04 00:07:47;;;;;;;64.93;34.83;;;;;;;;;;5028043;28;20466;-83
2021/11/04 00:10:21;;;;;;;60.23;33.90;;;;;;;;;;5012351;28;20482;-83
2021/11/04 00:12:53;;;;;;;58.30;32.57;;;;;;;;;;5016878;28;20470;-84
2021/11/04 00:15:21;;;;;;;61.80;34.10;;;;;;;;;;5022607;28;20482;-83
2021/11/04 00:17:50;;;;;;;63.07;33.20;;;;;;;;;;5022685;28;20476;-83
2021/11/04 00:20:19;;;;;;;60.20;33.77;;;;;;;;;;5029139;28;20457;-83
2021/11/04 00:22:50;;;;;;;58.20;32.67;;;;;;;;;;5028972;28;20476;-83
2021/11/04 00:25:21;;;;;;;62.30;33.87;;;;;;;;;;5026568;28;20477;-83
2021/11/04 00:27:51;;;;;;;63.83;34.77;;;;;;;;;;5008830;28;20474;-83
2021/11/04 00:30:19;;;;;;;59.43;33.37;;;;;;;;;;5016336;28;20486;-83
2021/11/04 00:32:49;;;;;;;64.17;33.93;;;;;;;;;;5020505;28;20469;-84
2021/11/04 00:35:18;;;;;;;60.50;33.67;;;;;;;;;;5015205;28;21006;-83
2021/11/04 00:37:46;;;;;;;59.40;34.30;;;;;;;;;;5030000;28;20480;-84
2021/11/04 00:40:15;;;;;;;64.10;35.77;;;;;;;;;;5029897;28;20499;-83
2021/11/04 00:42:43;;;;;;;64.17;34.63;;;;;;;;;;5029207;28;20473;-84
2021/11/04 00:45:20;;;;;;;62.40;34.53;;;;;;;;;;5019542;28;20480;-83
2021/11/04 00:47:49;;;;;;;62.33;34.47;;;;;;;;;;5014798;28;21265;-83
2021/11/04 00:50:17;;;;;;;62.07;34.07;;;;;;;;;;5024469;28;20472;-84
2021/11/04 00:52:45;;;;;;;61.50;34.83;;;;;;;;;;5030303;28;20475;-84
2021/11/04 00:55:16;;;;;;;63.13;35.57;;;;;;;;;;5016972;28;21017;-84
2021/11/04 00:57:44;;;;;;;62.03;33.27;;;;;;;;;;5019196;28;20479;-83
2021/11/04 01:00:17;;;;;;;61.70;34.83;;;;;;;;;;5025886;28;20471;-83
2021/11/04 01:02:45;;;;;;;61.13;33.73;;;;;;;;;;5018042;28;20496;-83
2021/11/04 01:05:14;;;;;;;58.50;32.73;;;;;;;;;;5019039;28;20481;-83
2021/11/04 01:07:42;;;;;;;58.80;34.47;;;;;;;;;;5013453;28;20476;-83
2021/11/04 01:10:10;;;;;;;61.63;34.47;;;;;;;;;;5023594;28;20477;-84
2021/11/04 01:12:39;;;;;;;62.70;35.17;;;;;;;;;;5014578;28;20488;-83
2021/11/04 01:15:08;;;;;;;61.60;35.03;;;;;;;;;;5014594;28;20473;-83
2021/11/04 01:17:37;;;;;;;62.60;34.97;;;;;;;;;;5023349;28;20470;-83
2021/11/04 01:20:06;;;;;;;60.70;34.50;;;;;;;;;;5009421;28;20475;-84
2021/11/04 01:22:35;;;;;;;65.23;36.23;;;;;;;;;;5027123;28;20473;-83
2021/11/04 01:25:03;;;;;;;63.30;36.67;;;;;;;;;;5028743;28;20484;-83
2021/11/04 01:27:34;;;;;;;66.67;33.63;;;;;;;;;;5022046;28;20499;-83
2021/11/04 01:30:04;;;;;;;64.10;34.77;;;;;;;;;;5016631;28;20476;-83
2021/11/04 01:32:32;;;;;;;67.80;36.55;;;;;;;;;;5016067;28;20492;-83
2021/11/04 01:35:03;;;;;;;64.20;36.03;;;;;;;;;;5006782;28;20241;-83
2021/11/04 01:37:31;;;;;;;63.23;34.87;;;;;;;;;;5008485;28;20869;-84
2021/11/04 01:39:59;;;;;;;67.20;37.33;;;;;;;;;;5013018;28;20471;-83
2021/11/04 01:42:27;;;;;;;65.67;35.77;;;;;;;;;;5018484;28;20238;-84
2021/11/04 01:44:56;;;;;;;65.50;36.47;;;;;;;;;;5023234;28;20480;-83
2021/11/04 01:47:24;;;;;;;59.37;33.63;;;;;;;;;;5018679;28;20470;-83
2021/11/04 01:49:52;;;;;;;62.63;33.80;;;;;;;;;;5014994;28;20476;-83
2021/11/04 01:52:23;;;;;;;63.30;34.03;;;;;;;;;;5027105;28;20479;-83
2021/11/04 01:54:51;;;;;;;62.73;35.67;;;;;;;;;;5028347;28;20473;-84
2021/11/04 01:57:20;;;;;;;61.90;34.17;;;;;;;;;;5022887;28;20468;-83
2021/11/04 01:59:48;;;;;;;67.43;35.40;;;;;;;;;;5015517;28;20492;-83
2021/11/04 02:02:18;;;;;;;74.53;38.70;;;;;;;;;;5016412;28;20877;-83
2021/11/04 02:04:49;;;;;;;62.20;34.93;;;;;;;;;;5034673;28;20230;-83
2021/11/04 02:07:20;;;;;;;66.30;36.92;;;;;;;;;;5027097;28;20468;-83
2021/11/04 02:09:52;;;;;;;62.83;34.33;;;;;;;;;;5020057;28;20948;-83
2021/11/04 02:12:24;;;;;;;66.53;35.90;;;;;;;;;;5015740;28;20472;-83
2021/11/04 02:14:55;;;;;;;61.23;34.60;;;;;;;;;;5020781;28;20476;-83
2021/11/04 02:17:24;;;;;;;61.83;34.17;;;;;;;;;;5008692;28;20479;-84
2021/11/04 02:19:55;;;;;;;60.37;33.87;;;;;;;;;;5003935;28;21013;-84
2021/11/04 02:22:35;;;;;;;57.93;33.03;;;;;;;;;;5007311;28;20484;-84
2021/11/04 02:25:08;;;;;;;60.13;33.27;;;;;;;;;;5008275;28;20480;-84
2021/11/04 02:27:37;;;;;;;64.30;34.77;;;;;;;;;;5007344;28;20484;-83
2021/11/04 02:30:06;;;;;;;60.23;33.87;;;;;;;;;;5009747;28;21022;-83
2021/11/04 02:32:35;;;;;;;62.97;34.93;;;;;;;;;;5005834;28;20493;-84
2021/11/04 02:35:03;;;;;;;63.07;35.60;;;;;;;;;;4997666;28;20485;-83
2021/11/04 02:37:34;;;;;;;64.73;35.80;;;;;;;;;;5007619;28;20480;-84
2021/11/04 02:40:03;;;;;;;62.63;34.40;;;;;;;;;;5000490;28;20471;-83
2021/11/04 02:42:40;;;;;;;67.27;36.07;;;;;;;;;;5000026;28;20480;-83
2021/11/04 02:45:09;;;;;;;70.78;38.35;;;;;;;;;;5004469;28;20465;-84
2021/11/04 02:47:37;;;;;;;70.10;39.83;;;;;;;;;;5000165;28;20798;-84
2021/11/04 02:50:09;;;;;;;67.93;36.43;;;;;;;;;;5021946;28;20642;-83
2021/11/04 02:52:38;;;;;;;69.05;37.88;;;;;;;;;;5026651;28;20460;-84
2021/11/04 02:55:07;;;;;;;66.82;38.83;;;;;;;;;;5027667;28;20226;-84
2021/11/04 02:57:44;;;;;;;68.88;36.63;;;;;;;;;;5026479;28;20656;-83
2021/11/04 03:00:14;;;;;;;61.57;33.87;;;;;;;;;;5017065;28;20240;-84
2021/11/04 03:02:46;;;;;;;67.43;37.23;;;;;;;;;;5012674;28;20481;-83
2021/11/04 03:05:19;;;;;;;66.40;37.33;;;;;;;;;;5014840;28;20470;-83
2021/11/04 03:07:50;;;;;;;61.33;35.13;;;;;;;;;;5027899;28;20473;-84
2021/11/04 03:10:19;;;;;;;68.90;35.60;;;;;;;;;;5028186;28;20465;-84
2021/11/04 03:12:49;;;;;;;63.23;34.90;;;;;;;;;;5004454;28;20476;-84
2021/11/04 03:15:18;;;;;;;71.75;39.00;;;;;;;;;;5013294;28;20512;-83
2021/11/04 03:17:48;;;;;;;71.35;37.78;;;;;;;;;;5018839;28;20232;-84
2021/11/04 03:20:17;;;;;;;72.23;35.37;;;;;;;;;;5020500;28;20230;-83
2021/11/04 03:22:46;;;;;;;64.73;36.63;;;;;;;;;;5017800;28;20488;-83
2021/11/04 03:25:15;;;;;;;65.70;36.33;;;;;;;;;;5021353;28;20570;-83
2021/11/04 03:27:44;;;;;;;63.70;34.67;;;;;;;;;;5032436;28;20471;-83
2021/11/04 03:30:16;;;;;;;63.47;34.30;;;;;;;;;;5025786;28;20480;-83
2021/11/04 03:32:45;;;;;;;61.43;34.30;;;;;;;;;;5019548;28;20554;-83
2021/11/04 03:35:15;;;;;;;64.27;37.00;;;;;;;;;;5029519;28;20481;-83
2021/11/04 03:37:45;;;;;;;62.93;34.73;;;;;;;;;;5031888;28;20472;-83
2021/11/04 03:40:15;;;;;;;69.13;34.80;;;;;;;;;;5031712;28;20473;-83
2021/11/04 03:42:43;;;;;;;63.40;35.33;;;;;;;;;;5027153;28;20489;-83
2021/11/04 03:45:15;;;;;;;72.43;36.23;;;;;;;;;;5031138;28;20481;-83
2021/11/04 03:47:45;;;;;;;68.20;37.63;;;;;;;;;;5003557;28;20849;-83
2021/11/04 03:50:14;;;;;;;69.80;39.00;;;;;;;;;;5004390;28;20457;-83
2021/11/04 03:52:43;;;;;;;65.87;36.47;;;;;;;;;;5012031;28;20219;-83
2021/11/04 03:55:15;;;;;;;64.73;37.53;;;;;;;;;;5025150;28;21156;-84
2021/11/04 03:57:50;;;;;;;66.50;37.33;;;;;;;;;;5020444;28;20893;-83
2021/11/04 04:00:18;;;;;;;59.43;33.30;;;;;;;;;;5023018;28;20869;-83
2021/11/04 04:02:48;;;;;;;62.60;35.90;;;;;;;;;;5000756;28;20460;-83
2021/11/04 04:05:17;;;;;;;62.13;35.37;;;;;;;;;;5017887;28;20484;-83
2021/11/04 04:07:48;;;;;;;67.57;37.10;;;;;;;;;;5030492;28;20492;-83
2021/11/04 04:10:19;;;;;;;64.30;36.93;;;;;;;;;;5030988;28;20469;-83
2021/11/04 04:12:47;;;;;;;65.63;36.40;;;;;;;;;;5030846;28;20469;-83
2021/11/04 04:15:15;;;;;;;64.50;35.73;;;;;;;;;;5020589;28;20472;-84
2021/11/04 04:17:44;;;;;;;68.90;37.47;;;;;;;;;;5008549;28;20571;-83
2021/11/04 04:20:13;;;;;;;65.40;35.33;;;;;;;;;;5019215;28;20475;-83
2021/11/04 04:22:42;;;;;;;66.53;35.47;;;;;;;;;;5030443;28;20476;-83
2021/11/04 04:25:10;;;;;;;65.90;36.40;;;;;;;;;;5009005;28;20477;-83
2021/11/04 04:27:38;;;;;;;65.10;36.33;;;;;;;;;;5015508;28;20482;-83
2021/11/04 04:30:14;;;;;;;72.07;36.70;;;;;;;;;;5018849;28;20466;-83
2021/11/04 04:32:42;;;;;;;66.77;37.53;;;;;;;;;;5023315;28;20468;-84
2021/11/04 04:35:10;;;;;;;71.40;37.57;;;;;;;;;;5025411;28;21012;-83
2021/11/04 04:37:40;;;;;;;65.83;36.67;;;;;;;;;;5027030;28;20470;-83
2021/11/04 04:40:09;;;;;;;66.60;34.93;;;;;;;;;;5031421;28;20466;-83
2021/11/04 04:42:37;;;;;;;66.60;33.97;;;;;;;;;;5029121;28;21193;-83
2021/11/04 04:45:06;;;;;;;70.07;36.53;;;;;;;;;;5020281;28;20474;-83
2021/11/04 04:47:35;;;;;;;68.43;35.50;;;;;;;;;;5035725;28;20486;-84
2021/11/04 04:50:04;;;;;;;66.37;37.07;;;;;;;;;;5035703;28;20468;-83
2021/11/04 04:52:33;;;;;;;63.13;34.43;;;;;;;;;;5027835;28;20465;-83
2021/11/04 04:55:02;;;;;;;66.93;36.80;;;;;;;;;;5027924;28;20876;-83
2021/11/04 04:57:31;;;;;;;63.07;34.63;;;;;;;;;;5019420;28;20460;-83
2021/11/04 04:59:59;;;;;;;60.10;34.00;;;;;;;;;;5017271;28;20542;-83
2021/11/04 05:02:30;;;;;;;52.20;27.50;;;;;;;;;;5027063;28;21020;-83
2021/11/04 05:04:58;;;;;;;63.23;32.87;;;;;;;;;;5012832;28;20468;-83
2021/11/04 05:07:27;;;;;;;65.70;34.47;;;;;;;;;;5021589;28;20475;-83
2021/11/04 05:09:55;;;;;;;62.93;32.93;;;;;;;;;;5016759;28;20237;-83
2021/11/04 05:12:25;;;;;;;59.80;33.27;;;;;;;;;;5013838;28;20472;-83
2021/11/04 05:14:53;;;;;;;66.07;34.35;;;;;;;;;;5025271;28;20491;-83
2021/11/04 05:17:24;;;;;;;62.50;31.50;;;;;;;;;;5013406;28;20229;-83
2021/11/04 05:19:52;;;;;;;59.83;32.65;;;;;;;;;;5015236;28;20483;-83
2021/11/04 05:22:23;;;;;;;65.70;33.40;;;;;;;;;;5014898;28;20237;-83
2021/11/04 05:24:51;;;;;;;65.80;32.13;;;;;;;;;;5010505;28;20492;-83
2021/11/04 05:27:20;;;;;;;68.35;33.85;;;;;;;;;;5003201;28;20477;-83
2021/11/04 05:29:49;;;;;;;60.30;30.17;;;;;;;;;;4997454;28;20238;-83
2021/11/04 05:32:18;;;;;;;63.93;32.93;;;;;;;;;;4995905;28;20474;-83
2021/11/04 05:34:47;;;;;;;58.27;30.17;;;;;;;;;;4989691;28;20533;-83
2021/11/04 05:37:15;;;;;;;64.33;32.93;;;;;;;;;;4998597;28;21026;-83
2021/11/04 05:39:45;;;;;;;61.40;31.53;;;;;;;;;;5007811;28;20546;-83
2021/11/04 05:42:16;;;;;;;68.95;34.65;;;;;;;;;;5008338;28;20483;-83
2021/11/04 05:44:50;;;;;;;72.40;34.97;;;;;;;;;;5019233;28;20234;-84
2021/11/04 05:47:20;;;;;;;63.73;33.30;;;;;;;;;;5014774;28;20229;-83
2021/11/04 05:49:48;;;;;;;68.43;35.60;;;;;;;;;;5019833;28;20492;-84
2021/11/04 05:52:16;;;;;;;63.30;33.03;;;;;;;;;;5026918;28;20222;-84
2021/11/04 05:54:44;;;;;;;65.80;33.07;;;;;;;;;;5029407;28;20480;-84
2021/11/04 05:57:13;;;;;;;72.63;35.75;;;;;;;;;;5029560;28;20473;-83
2021/11/04 05:59:41;;;;;;;64.53;35.20;;;;;;;;;;5015865;28;20221;-83
2021/11/04 06:02:09;;;;;;;66.63;36.03;;;;;;;;;;5024902;28;20236;-82
2021/11/04 06:04:45;;;;;;;62.40;31.57;;;;;;;;;;5000849;28;20230;-82
2021/11/04 06:07:13;;;;;;;63.37;32.33;;;;;;;;;;5013252;28;20474;-82
2021/11/04 06:09:42;;;;;;;58.50;29.87;;;;;;;;;;5014036;28;20472;-82
2021/11/04 06:12:10;;;;;;;57.70;29.10;;;;;;;;;;5003974;28;20469;-82
2021/11/04 06:14:39;;;;;;;64.20;33.80;;;;;;;;;;5013245;28;20472;-82
2021/11/04 06:17:07;;;;;;;70.78;35.05;;;;;;;;;;4995017;28;20230;-82
2021/11/04 06:19:35;;;;;;;61.83;33.30;;;;;;;;;;5004060;28;20234;-83
2021/11/04 06:22:05;;;;;;;62.85;33.30;;;;;;;;;;5016830;28;20233;-82
2021/11/04 06:24:33;;;;;;;59.43;29.70;;;;;;;;;;5015206;28;21019;-82
2021/11/04 06:27:02;;;;;;;56.67;30.67;;;;;;;;;;5014660;28;20468;-82
2021/11/04 06:29:30;;;;;;;60.23;31.40;;;;;;;;;;5012569;28;20478;-83
2021/11/04 06:31:58;;;;;;;59.30;31.20;;;;;;;;;;5005670;28;20965;-82
2021/11/04 06:34:27;;;;;;;63.40;33.20;;;;;;;;;;5003094;28;20467;-82
2021/11/04 06:36:55;;;;;;;53.63;28.43;;;;;;;;;;5016086;28;20618;-84
2021/11/04 06:39:24;;;;;;;58.95;32.00;;;;;;;;;;5020290;28;20476;-84
2021/11/04 06:41:53;;;;;;;65.70;34.63;;;;;;;;;;5004183;28;20295;-84
2021/11/04 06:44:21;;;;;;;59.40;30.33;;;;;;;;;;5015856;28;20237;-84
2021/11/04 06:46:50;;;;;;;60.53;30.50;;;;;;;;;;4992680;28;20471;-84
2021/11/04 06:49:19;;;;;;;56.80;30.47;;;;;;;;;;5008199;28;21340;-84
2021/11/04 06:51:49;;;;;;;57.30;31.10;;;;;;;;;;5009685;28;21107;-84
2021/11/04 06:54:18;;;;;;;54.83;28.83;;;;;;;;;;5017647;28;20478;-84
2021/11/04 06:56:48;;;;;;;54.83;29.43;;;;;;;;;;5018851;28;20469;-84
2021/11/04 06:59:20;;;;;;;60.00;29.47;;;;;;;;;;5011101;28;20478;-84
2021/11/04 07:01:53;;;;;;;59.30;30.67;;;;;;;;;;4982235;28;20485;-84
2021/11/04 07:04:29;;;;;;;59.10;29.60;;;;;;;;;;5011931;28;20480;-84
2021/11/04 07:07:03;;;;;;;52.77;28.47;;;;;;;;;;5015809;28;20468;-84
2021/11/04 07:09:32;;;;;;;69.55;33.95;;;;;;;;;;5016466;28;20474;-84
2021/11/04 07:12:02;;;;;;;53.90;28.73;;;;;;;;;;5013537;28;20233;-84
2021/11/04 07:14:31;;;;;;;55.57;29.07;;;;;;;;;;5012666;28;20485;-84
2021/11/04 07:17:00;;;;;;;56.10;29.60;;;;;;;;;;5007280;28;20482;-84
2021/11/04 07:19:29;;;;;;;56.87;29.73;;;;;;;;;;5004837;28;20472;-84
2021/11/04 07:22:00;;;;;;;58.43;29.40;;;;;;;;;;5004697;28;20844;-84
2021/11/04 07:24:31;;;;;;;63.28;33.35;;;;;;;;;;5004681;28;20469;-84
2021/11/04 07:27:05;;;;;;;62.55;32.97;;;;;;;;;;4993647;28;21078;-84
2021/11/04 07:29:38;;;;;;;54.57;28.93;;;;;;;;;;5012027;28;20235;-84
2021/11/04 07:32:07;;;;;;;61.95;33.65;;;;;;;;;;4994503;28;20478;-84
2021/11/04 07:34:35;;;;;;;57.27;29.30;;;;;;;;;;5020383;28;20246;-84
2021/11/04 07:37:04;;;;;;;65.22;33.25;;;;;;;;;;5019460;28;20978;-84
2021/11/04 07:39:33;;;;;;;58.27;31.57;;;;;;;;;;5016548;28;20236;-84
2021/11/04 07:42:03;;;;;;;59.80;31.10;;;;;;;;;;5014053;28;20491;-84
2021/11/04 07:44:32;;;;;;;57.90;30.63;;;;;;;;;;5007402;28;21041;-84
2021/11/04 07:47:01;;;;;;;59.07;29.90;;;;;;;;;;5014884;28;20481;-84
2021/11/04 07:49:29;;;;;;;61.80;33.97;;;;;;;;;;5003085;28;21104;-84
2021/11/04 07:52:00;;;;;;;56.00;29.87;;;;;;;;;;5013262;28;20334;-85
2021/11/04 07:54:29;;;;;;;56.90;29.17;;;;;;;;;;5009496;28;20483;-84
2021/11/04 07:56:57;;;;;;;55.23;29.30;;;;;;;;;;4999448;28;20476;-84
2021/11/04 07:59:30;;;;;;;55.47;30.13;;;;;;;;;;4993423;28;20474;-84
2021/11/04 08:02:00;;;;;;;55.20;29.07;;;;;;;;;;5001149;28;20480;-83
2021/11/04 08:04:29;;;;;;;54.77;29.57;;;;;;;;;;5003338;28;20497;-83
2021/11/04 08:06:57;;;;;;;58.47;30.57;;;;;;;;;;5018326;28;20477;-85
2021/11/04 08:09:26;;;;;;;55.10;28.93;;;;;;;;;;5021934;28;20478;-83
2021/11/04 08:11:55;;;;;;;59.00;31.53;;;;;;;;;;5019995;28;20476;-87
2021/11/04 08:14:23;;;;;;;56.50;28.47;;;;;;;;;;5034761;28;20478;-87
2021/11/04 08:16:53;;;;;;;54.20;28.23;;;;;;;;;;5029138;28;20475;-86
2021/11/04 08:19:21;;;;;;;58.67;31.52;;;;;;;;;;5029941;28;20482;-86
2021/11/04 08:21:49;;;;;;;54.73;28.57;;;;;;;;;;5030723;28;20349;-85
2021/11/04 08:24:18;;;;;;;58.97;32.50;;;;;;;;;;5033334;28;20823;-85
2021/11/04 08:26:46;;;;;;;54.00;28.53;;;;;;;;;;5022182;28;20225;-85
2021/11/04 08:29:14;;;;;;;56.50;30.30;;;;;;;;;;5024245;28;20486;-85
2021/11/04 08:31:43;;;;;;;57.00;28.40;;;;;;;;;;5029724;28;20460;-86
2021/11/04 08:34:12;;;;;;;56.77;29.17;;;;;;;;;;5033104;28;21022;-85
2021/11/04 08:36:41;;;;;;;54.20;27.67;;;;;;;;;;5026757;28;20479;-86
2021/11/04 08:39:09;;;;;;;57.03;29.00;;;;;;;;;;5032490;28;20523;-85
2021/11/04 08:41:37;;;;;;;54.80;28.93;;;;;;;;;;5020544;28;20514;-86
2021/11/04 08:44:06;;;;;;;58.77;29.73;;;;;;;;;;5030835;28;20479;-86
2021/11/04 08:46:34;;;;;;;64.20;33.08;;;;;;;;;;5022179;28;20484;-86
2021/11/04 08:49:03;;;;;;;62.45;32.63;;;;;;;;;;5028042;28;20632;-87
2021/11/04 08:51:34;;;;;;;55.83;28.37;;;;;;;;;;5037175;28;20229;-85
2021/11/04 08:54:02;;;;;;;56.50;29.60;;;;;;;;;;5042011;28;20475;-85
2021/11/04 08:56:40;;;;;;;55.13;29.07;;;;;;;;;;5039144;28;21252;-86
2021/11/04 08:59:09;;;;;;;62.00;32.53;;;;;;;;;;5031283;28;20471;-85
2021/11/04 09:01:38;;;;;;;61.17;31.77;;;;;;;;;;5038625;28;20484;-86
2021/11/04 09:04:08;;;;;;;63.73;31.47;;;;;;;;;;5037792;28;20541;-85
2021/11/04 09:06:38;;;;;;;74.70;35.53;;;;;;;;;;5029570;28;20470;-85
2021/11/04 09:09:06;;;;;;;66.90;32.07;;;;;;;;;;5040252;28;20699;-85
2021/11/04 09:11:35;;;;;;;53.60;27.90;;;;;;;;;;5031724;28;20467;-85
2021/11/04 09:14:11;;;;;;;61.07;30.80;;;;;;;;;;5033570;28;20847;-85
2021/11/04 09:16:40;;;;;;;56.80;29.17;;;;;;;;;;5026990;28;20566;-85
2021/11/04 09:19:08;;;;;;;63.87;33.73;;;;;;;;;;5014435;28;20476;-85
2021/11/04 09:21:38;;;;;;;65.83;32.83;;;;;;;;;;5042513;28;20490;-85
2021/11/04 09:24:07;;;;;;;71.47;35.83;;;;;;;;;;5039433;28;20459;-85
2021/11/04 09:26:36;;;;;;;65.93;32.40;;;;;;;;;;5036579;28;20598;-86
2021/11/04 09:29:05;;;;;;;60.67;31.80;;;;;;;;;;5030422;28;20481;-85
2021/11/04 09:31:34;;;;;;;65.03;31.97;;;;;;;;;;5031757;28;20526;-85
2021/11/04 09:34:03;;;;;;;58.90;31.50;;;;;;;;;;5027479;28;20463;-85
2021/11/04 09:36:32;;;;;;;63.60;32.92;;;;;;;;;;5038709;28;20881;-85
2021/11/04 09:39:03;;;;;;;66.60;31.87;;;;;;;;;;5022702;28;20228;-85
2021/11/04 09:41:33;;;;;;;64.67;32.13;;;;;;;;;;5031134;28;20463;-85
2021/11/04 09:44:03;;;;;;;74.32;36.30;;;;;;;;;;5030722;28;20487;-85
2021/11/04 09:46:31;;;;;;;61.33;32.90;;;;;;;;;;5022800;28;20238;-85
2021/11/04 09:49:00;;;;;;;55.93;30.07;;;;;;;;;;5038358;28;20502;-85
2021/11/04 09:51:28;;;;;;;54.13;28.57;;;;;;;;;;5043281;28;21106;-86
2021/11/04 09:53:56;;;;;;;67.90;30.03;;;;;;;;;;5043787;28;20558;-86
2021/11/04 09:56:26;;;;;;;59.20;32.17;;;;;;;;;;5037872;28;20476;-86
2021/11/04 09:58:54;;;;;;;64.27;31.07;;;;;;;;;;5036017;28;21004;-87
2021/11/04 10:01:25;;;;;;;59.37;30.97;;;;;;;;;;5011515;28;20471;-84
2021/11/04 10:03:53;;;;;;;115.30;74.13;;;;;;;;;;5029803;28;20452;-86
2021/11/04 10:06:22;;;;;;;50.80;29.30;;;;;;;;;;5028646;28;20485;-85
2021/11/04 10:08:52;;;;;;;46.80;28.17;;;;;;;;;;5039841;28;20463;-86
2021/11/04 10:11:21;;;;;;;43.53;25.33;;;;;;;;;;5035049;28;20499;-86
2021/11/04 10:13:51;;;;;;;40.40;25.00;;;;;;;;;;5026218;28;20558;-86
2021/11/04 10:16:26;;;;;;;41.20;26.07;;;;;;;;;;5031151;28;20477;-85
2021/11/04 10:18:56;;;;;;;36.20;21.93;;;;;;;;;;5032680;28;20471;-85
2021/11/04 10:21:40;;;;;;;36.87;22.23;;;;;;;;;;5040974;28;20487;-86
2021/11/04 10:24:16;;;;;;;43.47;23.70;;;;;;;;;;5042345;28;21192;-85
2021/11/04 10:26:44;;;;;;;38.10;22.17;;;;;;;;;;5040628;28;20863;-85
2021/11/04 10:29:15;;;;;;;39.77;23.23;;;;;;;;;;5042557;28;20491;-85
2021/11/04 10:31:44;;;;;;;37.30;23.50;;;;;;;;;;5002410;28;20467;-85
2021/11/04 10:34:18;;;;;;;36.43;22.10;;;;;;;;;;5017240;28;20535;-85
2021/11/04 10:36:46;;;;;;;33.43;21.83;;;;;;;;;;5031329;28;20465;-85
2021/11/04 10:39:15;;;;;;;39.37;23.17;;;;;;;;;;5034924;28;20678;-85
2021/11/04 10:41:44;;;;;;;37.60;23.70;;;;;;;;;;5024717;28;20476;-85
2021/11/04 10:44:17;;;;;;;39.83;24.10;;;;;;;;;;5020965;28;20478;-84
2021/11/04 10:46:54;;;;;;;37.73;22.80;;;;;;;;;;5028926;28;20547;-85
2021/11/04 10:49:23;;;;;;;43.17;22.17;;;;;;;;;;5038854;28;20455;-85
2021/11/04 10:51:57;;;;;;;35.97;22.97;;;;;;;;;;5033087;28;20470;-85
2021/11/04 10:54:39;;;;;;;34.90;22.13;;;;;;;;;;5025887;28;20577;-85
2021/11/04 10:57:07;;;;;;;34.63;21.63;;;;;;;;;;5029302;28;20473;-85
2021/11/04 10:59:43;;;;;;;43.90;25.03;;;;;;;;;;5031889;28;20481;-85
2021/11/04 11:02:14;;;;;;;41.27;22.00;;;;;;;;;;5024953;28;20606;-85
2021/11/04 11:04:42;;;;;;;35.93;22.37;;;;;;;;;;5024681;28;20502;-85
2021/11/04 11:07:11;;;;;;;36.73;23.30;;;;;;;;;;5032456;28;20503;-85
2021/11/04 11:09:40;;;;;;;32.57;19.00;;;;;;;;;;5035411;28;20487;-85
2021/11/04 11:12:09;;;;;;;27.20;14.90;;;;;;;;;;5038388;28;20480;-85
2021/11/04 11:14:37;;;;;;;31.33;19.10;;;;;;;;;;5025550;28;20466;-85
2021/11/04 11:17:08;;;;;;;24.33;13.50;;;;;;;;;;5019551;28;20481;-85
2021/11/04 11:19:39;;;;;;;20.33;13.07;;;;;;;;;;5024860;28;20473;-85
2021/11/04 11:22:08;;;;;;;27.67;14.40;;;;;;;;;;5020156;28;20485;-85
2021/11/04 11:24:37;;;;;;;24.70;13.87;;;;;;;;;;5028714;28;20480;-85
2021/11/04 11:27:06;;;;;;;28.13;14.53;;;;;;;;;;5028973;28;20463;-85
2021/11/04 11:29:36;;;;;;;25.63;13.73;;;;;;;;;;5028170;28;20475;-85
2021/11/04 11:32:21;;;;;;;23.83;13.27;;;;;;;;;;5028478;28;21038;-85
2021/11/04 11:34:50;;;;;;;30.77;13.17;;;;;;;;;;5027280;28;20472;-85
2021/11/04 11:37:20;;;;;;;25.77;14.43;;;;;;;;;;5038119;28;20471;-85
2021/11/04 11:40:10;;;;;;;29.87;14.93;;;;;;;;;;5033340;28;20527;-85
2021/11/04 11:42:54;;;;;;;18.80;12.20;;;;;;;;;;5035641;28;21572;-85
2021/11/04 11:45:22;;;;;;;24.70;13.10;;;;;;;;;;5040060;28;21641;-85
2021/11/04 11:47:52;;;;;;;22.47;11.93;;;;;;;;;;5032338;28;20875;-85
2021/11/04 11:50:22;;;;;;;23.53;13.00;;;;;;;;;;5032702;28;20463;-85
2021/11/04 11:52:52;;;;;;;23.47;13.03;;;;;;;;;;5041099;28;20490;-84
2021/11/04 11:55:21;;;;;;;28.93;13.30;;;;;;;;;;5038400;28;20463;-85
2021/11/04 11:58:08;;;;;;;27.90;14.60;;;;;;;;;;5026113;28;20504;-85
2021/11/04 12:00:49;;;;;;;29.37;13.27;;;;;;;;;;5032369;28;20832;-85
2021/11/04 12:03:32;;;;;;;28.50;12.10;;;;;;;;;;5030724;28;20902;-85
2021/11/04 12:06:02;;;;;;;29.20;14.13;;;;;;;;;;5030863;28;21268;-85
2021/11/04 12:08:35;;;;;;;27.97;13.90;;;;;;;;;;5035834;28;20867;-85
2021/11/04 12:11:04;;;;;;;25.80;13.43;;;;;;;;;;5036994;28;20471;-85
2021/11/04 12:13:37;;;;;;;24.77;12.93;;;;;;;;;;5033640;28;20499;-85
2021/11/04 12:16:13;;;;;;;25.97;13.13;;;;;;;;;;5030695;28;21020;-85
2021/11/04 12:18:49;;;;;;;25.73;13.30;;;;;;;;;;5015837;28;20468;-85
2021/11/04 12:21:22;;;;;;;24.13;13.00;;;;;;;;;;5040355;28;20550;-85
2021/11/04 12:23:51;;;;;;;18.47;11.93;;;;;;;;;;5042948;28;20468;-85
2021/11/04 12:26:29;;;;;;;25.67;12.03;;;;;;;;;;5028338;28;21445;-85
2021/11/04 12:28:57;;;;;;;33.00;12.67;;;;;;;;;;5037292;28;20460;-85
2021/11/04 12:31:27;;;;;;;20.90;11.63;;;;;;;;;;5026909;28;20478;-85
2021/11/04 12:33:55;;;;;;;25.57;12.07;;;;;;;;;;5025351;28;20473;-85
2021/11/04 12:36:32;;;;;;;26.60;11.47;;;;;;;;;;5031624;28;20493;-85
2021/11/04 12:39:00;;;;;;;25.90;11.93;;;;;;;;;;5011838;28;20484;-85
2021/11/04 12:41:29;;;;;;;31.80;13.03;;;;;;;;;;5013123;28;20484;-85
2021/11/04 12:44:05;;;;;;;22.97;12.50;;;;;;;;;;5005819;28;20466;-85
2021/11/04 12:46:34;;;;;;;24.47;13.37;;;;;;;;;;5010233;28;20481;-85
2021/11/04 12:49:04;;;;;;;30.63;12.40;;;;;;;;;;5008063;28;20470;-85
2021/11/04 12:51:54;;;;;;;21.57;12.07;;;;;;;;;;5023731;28;20481;-85
2021/11/04 12:54:24;;;;;;;24.53;12.10;;;;;;;;;;5010192;28;20484;-85
2021/11/04 12:56:54;;;;;;;21.83;11.87;;;;;;;;;;5020533;28;20868;-85
2021/11/04 12:59:30;;;;;;;25.20;11.93;;;;;;;;;;5002167;28;20972;-85
2021/11/04 13:01:58;;;;;;;25.03;10.60;;;;;;;;;;5008139;28;21005;-85
2021/11/04 13:04:28;;;;;;;18.73;11.33;;;;;;;;;;5016684;28;20480;-85
2021/11/04 13:06:57;;;;;;;25.10;11.40;;;;;;;;;;5016929;28;20500;-84
2021/11/04 13:09:27;;;;;;;28.40;12.57;;;;;;;;;;5009026;28;20480;-85
2021/11/04 13:12:02;;;;;;;23.43;12.97;;;;;;;;;;5008452;28;20492;-85
2021/11/04 13:14:30;;;;;;;25.57;11.37;;;;;;;;;;5004619;28;20523;-85
2021/11/04 13:16:58;;;;;;;20.10;12.20;;;;;;;;;;5005263;28;20474;-85
2021/11/04 13:19:27;;;;;;;23.57;11.57;;;;;;;;;;5014345;28;20474;-85
2021/11/04 13:21:58;;;;;;;22.90;10.90;;;;;;;;;;5027259;28;20476;-85
2021/11/04 13:24:28;;;;;;;25.77;12.00;;;;;;;;;;5018782;28;20481;-85
2021/11/04 13:26:56;;;;;;;27.33;13.60;;;;;;;;;;5016889;28;20986;-85
2021/11/04 13:29:24;;;;;;;25.93;12.07;;;;;;;;;;5001582;28;20482;-85
2021/11/04 13:31:52;;;;;;;21.50;11.07;;;;;;;;;;5016342;28;20491;-85
2021/11/04 13:34:21;;;;;;;21.03;11.90;;;;;;;;;;5007320;28;20477;-85
2021/11/04 13:36:49;;;;;;;20.17;11.17;;;;;;;;;;5016668;28;20478;-85
2021/11/04 13:39:17;;;;;;;18.43;11.10;;;;;;;;;;5010652;28;20465;-85
2021/11/04 13:41:50;;;;;;;25.77;11.73;;;;;;;;;;4997824;28;20995;-86
2021/11/04 13:44:19;;;;;;;23.57;12.03;;;;;;;;;;5004951;28;20486;-85
2021/11/04 13:46:48;;;;;;;24.87;11.57;;;;;;;;;;5003956;28;20460;-86
2021/11/04 13:49:17;;;;;;;24.57;10.97;;;;;;;;;;4986741;28;20564;-85
2021/11/04 13:51:47;;;;;;;17.90;11.20;;;;;;;;;;5011990;28;20479;-85
2021/11/04 13:54:16;;;;;;;20.10;11.27;;;;;;;;;;5015785;28;20577;-85
2021/11/04 13:56:46;;;;;;;25.13;10.43;;;;;;;;;;5014003;28;20994;-80
2021/11/04 13:59:16;;;;;;;17.80;10.47;;;;;;;;;;5025678;28;20480;-80
2021/11/04 14:50:23;;;;;;;33.23;13.97;;;;;;;;;;4894900;29;20557;-81
2021/11/04 14:52:52;;;;;;;21.30;12.10;;;;;;;;;;4891019;29;20498;-81
2021/11/04 14:55:22;;;;;;;20.50;12.23;;;;;;;;;;4901229;29;20495;-81
2021/11/04 14:57:50;;;;;;;17.50;11.10;;;;;;;;;;4909806;29;20505;-81
2021/11/04 15:00:18;;;;;;;21.97;12.67;;;;;;;;;;4891276;29;20482;-81
2021/11/04 15:02:47;;;;;;;19.20;10.77;;;;;;;;;;4875698;29;20492;-82
2021/11/04 15:05:16;;;;;;;21.57;10.27;;;;;;;;;;4907651;29;20484;-82
2021/11/04 15:07:46;;;;;;;19.40;10.63;;;;;;;;;;4913052;29;20477;-82
2021/11/04 15:10:20;;;;;;;23.97;12.13;;;9.10;99.80;;;;;;4915903;29;20481;-82
2021/11/04 15:12:48;;;;;;;22.00;12.57;;;9.10;99.80;;;;;;4918599;29;20968;-82
2021/11/04 15:15:16;;;;;;;24.00;13.20;;;9.10;99.80;;;;;;4893202;29;20489;-82
2021/11/04 18:18:27;;;;;;;39.50;26.83;;;8.20;99.80;;;;;;5308218;23;20486;-88
2021/11/04 18:20:56;;;;;;;38.70;25.70;;;8.20;99.80;;;;;;4883560;29;21020;-88